KGRR/GRR METAR and TAF weather

Enter ICAO airport designator
Station Type Date Time Source
KGRR METAR 2019/06/19 06:53 UTC NOAA

KGRR 190653Z AUTO 00000KT 10SM FEW050 16/14 A2985 RMK AO2 SLP105 T01560139


Station Type Date Time Source
KGRR Decoded METAR 2019/06/19 06:53 UTC NOAA

GERALD R. FORD INTERNATIONAL, MI, United States (KGRR) 42-53N 085-31W 239M
Jun 19, 2019 - 02:53 AM EDT / 2019.06.19 0653 UTC
Wind: Calm:0
Visibility: 10 mile(s):0
Sky conditions: mostly clear
Temperature: 60.1 F (15.6 C)
Dew Point: 57.0 F (13.9 C)
Relative Humidity: 89%
Pressure (altimeter): 29.85 in. Hg (1010 hPa)
ob: KGRR 190653Z AUTO 00000KT 10SM FEW050 16/14 A2985 RMK AO2 SLP105 T01560139
cycle: 7

Station Type Date Time Source
KGRR TAF 2019/06/19 06:42 UTC NOAA

TAF KGRR 190540Z 1906/2006 VRB03KT P6SM SCT080
FM191900 VRB04KT P6SM VCSH SCT040
FM192200 01005KT P6SM VCSH BKN040
FM200000 03006KT P6SM OVC060
FM200300 06006KT P6SM OVC030

Example: see airport list